createdAt,value
2019-02-26T00:00:20.048Z,16.53
2019-02-26T00:02:52.614Z,16.53
2019-02-26T00:05:21.550Z,18.27
2019-02-26T00:07:51.571Z,16.00
2019-02-26T00:10:24.790Z,18.13
2019-02-26T00:12:50.209Z,17.83
2019-02-26T00:15:18.789Z,17.70
2019-02-26T00:17:49.042Z,17.43
2019-02-26T00:20:17.737Z,17.50
2019-02-26T00:22:46.443Z,17.73
2019-02-26T00:25:16.166Z,17.93
2019-02-26T00:27:47.113Z,18.03
2019-02-26T00:30:16.637Z,16.60
2019-02-26T00:32:45.945Z,17.70
2019-02-26T00:35:16.070Z,19.07
2019-02-26T00:37:46.534Z,17.97
2019-02-26T00:40:17.167Z,17.87
2019-02-26T00:42:45.466Z,17.87
2019-02-26T00:45:14.531Z,18.50
2019-02-26T00:47:46.135Z,18.27
2019-02-26T00:50:16.691Z,17.10
2019-02-26T00:52:45.202Z,19.10
2019-02-26T00:55:13.775Z,17.60
2019-02-26T00:57:43.010Z,17.87
2019-02-26T01:00:14.546Z,18.53
2019-02-26T01:02:43.113Z,17.87
2019-02-26T01:05:13.138Z,19.03
2019-02-26T01:07:44.934Z,16.67
2019-02-26T01:10:14.004Z,18.80
2019-02-26T01:12:43.401Z,18.57
2019-02-26T01:15:16.887Z,18.25
2019-02-26T01:17:45.635Z,18.20
2019-02-26T01:20:16.341Z,18.20
2019-02-26T01:22:45.660Z,16.75
2019-02-26T01:25:15.962Z,19.63
2019-02-26T01:27:47.612Z,17.37
2019-02-26T01:30:23.441Z,19.03
2019-02-26T01:32:49.071Z,18.62
2019-02-26T01:35:17.965Z,18.67
2019-02-26T01:37:46.817Z,19.37
2019-02-26T01:40:19.316Z,19.77
2019-02-26T01:42:49.852Z,18.05
2019-02-26T01:45:19.408Z,19.90
2019-02-26T01:47:48.797Z,20.35
2019-02-26T01:50:18.323Z,20.05
2019-02-26T01:52:47.197Z,20.40
2019-02-26T01:55:18.168Z,20.43
2019-02-26T01:57:46.667Z,20.50
2019-02-26T02:00:18.125Z,19.25
2019-02-26T02:02:47.098Z,19.73
2019-02-26T02:05:15.967Z,20.08
2019-02-26T02:07:47.183Z,18.65
2019-02-26T02:10:16.435Z,18.87
2019-02-26T02:12:45.291Z,20.17
2019-02-26T02:15:20.792Z,20.25
2019-02-26T02:17:46.523Z,20.45
2019-02-26T02:20:19.419Z,20.72
2019-02-26T02:22:47.027Z,21.97
2019-02-26T02:25:15.913Z,21.27
2019-02-26T02:27:47.654Z,19.80
2019-02-26T02:30:22.547Z,20.23
2019-02-26T02:32:51.280Z,20.65
2019-02-26T02:35:19.259Z,21.57
2019-02-26T02:37:50.805Z,22.15
2019-02-26T02:40:19.325Z,21.45
2019-02-26T02:42:49.129Z,20.95
2019-02-26T02:45:20.999Z,20.43
2019-02-26T02:47:54.825Z,21.20
2019-02-26T02:50:19.656Z,21.02
2019-02-26T02:52:50.575Z,20.00
2019-02-26T02:55:19.442Z,22.95
2019-02-26T02:57:50.169Z,21.87
2019-02-26T03:00:21.256Z,22.80
2019-02-26T03:02:52.292Z,22.10
2019-02-26T03:05:20.189Z,21.93
2019-02-26T03:07:51.651Z,23.20
2019-02-26T03:10:19.691Z,22.87
2019-02-26T03:12:52.190Z,24.60
2019-02-26T03:15:21.169Z,23.32
2019-02-26T03:17:49.757Z,24.47
2019-02-26T03:20:18.611Z,23.70
2019-02-26T03:22:49.189Z,25.10
2019-02-26T03:25:21.019Z,24.60
2019-02-26T03:27:49.069Z,24.02
2019-02-26T03:30:32.181Z,24.10
2019-02-26T03:33:00.207Z,23.90
2019-02-26T03:35:25.401Z,25.10
2019-02-26T03:37:57.738Z,24.45
2019-02-26T03:40:27.049Z,24.05
2019-02-26T03:42:55.510Z,22.98
2019-02-26T03:45:25.255Z,23.87
2019-02-26T03:47:55.374Z,24.70
2019-02-26T03:50:27.055Z,23.75
2019-02-26T03:52:55.431Z,23.52
2019-02-26T03:55:24.283Z,23.70
2019-02-26T03:57:56.414Z,22.75
2019-02-26T04:00:23.812Z,20.90
2019-02-26T04:02:52.753Z,22.87
2019-02-26T04:05:21.619Z,23.40
2019-02-26T04:07:53.287Z,21.40
2019-02-26T04:10:21.560Z,23.40
2019-02-26T04:12:52.141Z,22.98
2019-02-26T04:15:24.310Z,24.43
2019-02-26T04:17:51.629Z,22.82
2019-02-26T04:20:20.525Z,23.75
2019-02-26T04:22:52.391Z,22.02
2019-02-26T04:25:43.906Z,24.43
2019-02-26T04:28:19.051Z,22.25
2019-02-26T04:30:59.662Z,22.75
2019-02-26T04:33:55.897Z,23.87
2019-02-26T04:36:28.135Z,23.55
2019-02-26T04:39:36.860Z,22.42
2019-02-26T04:42:17.731Z,24.45
2019-02-26T04:45:09.136Z,22.70
2019-02-26T04:47:58.317Z,22.17
2019-02-26T04:50:29.552Z,22.80
2019-02-26T04:52:59.735Z,22.73
2019-02-26T04:55:29.727Z,23.67
2019-02-26T04:57:59.136Z,23.22
2019-02-26T05:00:30.382Z,21.90
2019-02-26T05:02:58.589Z,22.17
2019-02-26T05:05:31.022Z,23.15
2019-02-26T05:07:58.081Z,22.82
2019-02-26T05:10:28.972Z,23.50
2019-02-26T05:13:00.225Z,23.75
2019-02-26T05:15:32.492Z,23.27
2019-02-26T05:17:58.768Z,24.40
2019-02-26T05:20:27.659Z,22.52
2019-02-26T05:22:58.408Z,23.32
2019-02-26T05:25:27.130Z,24.57
2019-02-26T05:27:55.990Z,21.95
2019-02-26T05:30:24.887Z,22.73
2019-02-26T05:32:57.047Z,21.70
2019-02-26T05:35:25.280Z,24.07
2019-02-26T05:37:57.533Z,23.87
2019-02-26T05:40:24.920Z,23.40
2019-02-26T05:42:55.903Z,24.32
2019-02-26T05:45:26.333Z,22.80
2019-02-26T05:47:58.695Z,22.82
2019-02-26T05:50:25.612Z,23.18
2019-02-26T05:52:58.007Z,21.68
2019-02-26T05:55:25.637Z,21.93
2019-02-26T05:57:55.707Z,23.05
2019-02-26T06:00:28.385Z,23.83
2019-02-26T06:02:55.174Z,24.50
2019-02-26T06:05:25.957Z,24.25
2019-02-26T06:07:54.668Z,24.92
2019-02-26T06:10:24.655Z,24.82
2019-02-26T06:12:54.121Z,25.48
2019-02-26T06:15:25.628Z,23.62
2019-02-26T06:17:55.835Z,25.30
2019-02-26T06:20:28.123Z,24.25
2019-02-26T06:22:54.794Z,26.25
2019-02-26T06:25:24.491Z,25.75
2019-02-26T06:27:53.530Z,24.57
2019-02-26T06:30:22.402Z,24.23
2019-02-26T06:32:51.312Z,25.02
2019-02-26T06:35:20.198Z,27.20
2019-02-26T06:37:49.050Z,26.25
2019-02-26T06:40:18.192Z,26.77
2019-02-26T06:42:47.066Z,24.98
2019-02-26T06:45:16.807Z,25.50
2019-02-26T06:47:48.454Z,25.65
2019-02-26T06:50:18.868Z,25.95
2019-02-26T06:52:48.613Z,26.35
2019-02-26T06:55:17.683Z,25.20
2019-02-26T06:57:49.684Z,28.25
2019-02-26T07:00:21.274Z,25.70
2019-02-26T07:02:49.248Z,26.70
2019-02-26T07:05:18.114Z,26.37
2019-02-26T07:07:46.980Z,27.90
2019-02-26T07:10:19.013Z,27.80
2019-02-26T07:12:48.730Z,27.02
2019-02-26T07:15:17.448Z,27.55
2019-02-26T07:17:46.435Z,26.65
2019-02-26T07:20:15.365Z,26.87
2019-02-26T07:22:46.792Z,27.65
2019-02-26T07:25:16.613Z,28.30
2019-02-26T07:27:45.454Z,28.77
2019-02-26T07:30:14.328Z,27.48
2019-02-26T07:32:45.663Z,27.17
2019-02-26T07:35:16.612Z,27.30
2019-02-26T07:37:44.408Z,26.87
2019-02-26T07:40:15.848Z,24.75
2019-02-26T07:42:46.758Z,25.30
2019-02-26T07:45:17.809Z,29.12
2019-02-26T07:47:45.414Z,29.12
2019-02-26T07:50:15.720Z,28.50
2019-02-26T07:52:44.958Z,28.15
2019-02-26T07:55:15.331Z,28.35
2019-02-26T07:57:45.507Z,28.83
2019-02-26T08:00:18.092Z,30.08
2019-02-26T08:02:46.980Z,28.23
2019-02-26T08:05:17.087Z,28.02
2019-02-26T08:07:48.428Z,28.32
2019-02-26T08:10:19.577Z,30.20
2019-02-26T08:12:48.602Z,30.45
2019-02-26T08:15:17.593Z,29.60
2019-02-26T08:17:50.246Z,30.70
2019-02-26T08:20:17.178Z,31.65
2019-02-26T08:22:46.092Z,31.00
2019-02-26T08:25:15.048Z,33.63
2019-02-26T08:27:43.933Z,30.95
2019-02-26T08:30:17.844Z,31.57
2019-02-26T08:32:48.523Z,32.65
2019-02-26T08:35:18.828Z,31.77
2019-02-26T08:37:47.005Z,32.88
2019-02-26T08:40:16.125Z,31.68
2019-02-26T08:42:45.021Z,30.37
2019-02-26T08:45:17.786Z,36.25
2019-02-26T08:47:46.628Z,31.93
2019-02-26T08:50:15.863Z,30.88
2019-02-26T08:52:47.718Z,32.23
2019-02-26T08:55:18.415Z,32.00
2019-02-26T08:57:46.608Z,33.08
2019-02-26T09:00:22.079Z,31.17
2019-02-26T09:02:54.031Z,33.50
2019-02-26T09:05:23.985Z,30.65
2019-02-26T09:07:52.205Z,30.27
2019-02-26T09:10:23.248Z,31.48
2019-02-26T09:12:52.107Z,33.40
2019-02-26T09:15:22.079Z,35.45
2019-02-26T09:17:50.671Z,32.57
2019-02-26T09:20:20.379Z,30.87
2019-02-26T09:22:51.402Z,34.03
2019-02-26T09:25:21.084Z,30.13
2019-02-26T09:27:49.613Z,31.43
2019-02-26T09:30:19.439Z,32.37
2019-02-26T09:32:48.016Z,34.20
2019-02-26T09:35:25.358Z,32.27
2019-02-26T09:37:52.718Z,31.23
2019-02-26T09:40:23.712Z,32.03
2019-02-26T09:42:54.523Z,32.50
2019-02-26T09:45:30.026Z,32.37
2019-02-26T09:47:58.206Z,32.43
2019-02-26T09:50:27.029Z,31.63
2019-02-26T09:52:58.756Z,31.20
2019-02-26T09:55:25.889Z,31.30
2019-02-26T09:57:54.477Z,32.30
2019-02-26T10:00:26.929Z,32.23
2019-02-26T10:02:53.996Z,32.63
2019-02-26T10:05:22.592Z,32.50
2019-02-26T10:07:54.237Z,34.53
2019-02-26T10:10:22.719Z,34.27
2019-02-26T10:12:53.765Z,35.00
2019-02-26T10:15:21.577Z,32.33
2019-02-26T10:17:50.142Z,34.63
2019-02-26T10:20:27.885Z,36.20
2019-02-26T10:22:57.199Z,37.80
2019-02-26T10:25:26.410Z,37.47
2019-02-26T10:27:54.725Z,38.47
2019-02-26T10:30:23.389Z,37.83
2019-02-26T10:32:51.961Z,37.07
2019-02-26T10:35:32.546Z,37.07
2019-02-26T10:38:05.103Z,35.07
2019-02-26T10:40:35.525Z,37.33
2019-02-26T10:43:01.521Z,38.67
2019-02-26T10:45:36.027Z,36.13
2019-02-26T10:48:01.990Z,34.73
2019-02-26T10:50:31.906Z,35.07
2019-02-26T10:53:07.213Z,37.13
2019-02-26T10:55:38.138Z,35.50
2019-02-26T10:58:06.787Z,35.23
2019-02-26T11:00:34.734Z,37.17
2019-02-26T11:03:02.234Z,34.67
2019-02-26T11:05:30.975Z,35.13
2019-02-26T11:08:02.158Z,34.83
2019-02-26T11:10:29.871Z,37.67
2019-02-26T11:12:59.388Z,35.40
2019-02-26T11:15:31.111Z,35.47
2019-02-26T11:17:58.721Z,33.33
2019-02-26T11:20:30.487Z,35.73
2019-02-26T11:22:57.679Z,32.90
2019-02-26T11:25:27.439Z,36.23
2019-02-26T11:27:56.320Z,35.80
2019-02-26T11:30:29.359Z,33.80
2019-02-26T11:33:02.129Z,35.03
2019-02-26T11:35:27.540Z,32.63
2019-02-26T11:37:57.774Z,33.37
2019-02-26T11:40:28.061Z,33.70
2019-02-26T11:42:59.823Z,31.87
2019-02-26T11:45:27.749Z,32.37
2019-02-26T11:47:58.075Z,33.90
2019-02-26T11:50:28.136Z,31.93
2019-02-26T11:52:57.227Z,33.77
2019-02-26T11:55:28.621Z,33.37
2019-02-26T11:57:56.129Z,35.97
2019-02-26T12:00:31.312Z,33.87
2019-02-26T12:02:58.364Z,34.03
2019-02-26T12:05:31.420Z,33.33
2019-02-26T12:07:58.831Z,31.43
2019-02-26T12:10:29.676Z,31.47
2019-02-26T12:13:00.029Z,32.57
2019-02-26T12:15:30.238Z,30.80
2019-02-26T12:17:58.836Z,32.57
2019-02-26T12:20:27.524Z,32.53
2019-02-26T12:22:56.103Z,33.83
2019-02-26T12:25:24.669Z,33.20
2019-02-26T12:27:53.276Z,32.63
2019-02-26T12:30:23.171Z,31.70
2019-02-26T12:32:53.112Z,34.03
2019-02-26T12:35:22.092Z,33.07
2019-02-26T12:37:52.764Z,34.27
2019-02-26T12:40:23.347Z,32.67
2019-02-26T12:42:51.306Z,32.90
2019-02-26T12:45:22.006Z,30.60
2019-02-26T12:47:53.890Z,31.77
2019-02-26T12:50:26.136Z,33.17
2019-02-26T12:52:53.847Z,32.20
2019-02-26T12:57:56.497Z,31.27
2019-02-26T13:00:24.922Z,31.47
2019-02-26T13:02:53.472Z,31.43
2019-02-26T13:05:22.915Z,31.50
2019-02-26T13:07:51.883Z,30.73
2019-02-26T13:10:24.632Z,30.67
2019-02-26T13:12:59.010Z,31.60
2019-02-26T13:15:23.818Z,30.73
2019-02-26T13:17:54.397Z,31.27
2019-02-26T13:20:26.776Z,31.57
2019-02-26T13:23:00.569Z,31.03
2019-02-26T13:25:26.769Z,32.73
2019-02-26T13:27:55.627Z,31.73
2019-02-26T13:30:25.440Z,32.93
2019-02-26T13:32:58.088Z,30.67
2019-02-26T13:35:26.353Z,31.27
2019-02-26T13:37:59.538Z,29.40
2019-02-26T13:40:28.158Z,31.63
2019-02-26T13:45:28.205Z,30.40
2019-02-26T13:48:01.123Z,32.20
2019-02-26T13:50:32.263Z,29.40
2019-02-26T13:53:00.847Z,31.77
2019-02-26T13:55:29.430Z,30.37
2019-02-26T13:57:58.039Z,34.50
2019-02-26T14:00:27.161Z,34.30
2019-02-26T14:02:55.849Z,31.03
2019-02-26T14:05:25.072Z,30.17
2019-02-26T14:07:53.702Z,32.43
2019-02-26T14:10:26.092Z,31.43
2019-02-26T14:12:54.664Z,33.37
2019-02-26T14:15:26.719Z,32.03
2019-02-26T14:17:55.637Z,31.60
2019-02-26T14:20:24.204Z,33.40
2019-02-26T14:22:52.833Z,31.50
2019-02-26T14:25:21.401Z,31.73
2019-02-26T14:27:49.969Z,30.83
2019-02-26T14:30:22.270Z,32.17
2019-02-26T14:32:50.880Z,32.77
2019-02-26T14:35:19.610Z,33.23
2019-02-26T14:37:48.206Z,33.67
2019-02-26T14:40:39.247Z,35.30
2019-02-26T14:43:07.853Z,33.83
2019-02-26T14:45:36.427Z,32.23
2019-02-26T14:48:05.026Z,34.30
2019-02-26T14:50:33.604Z,34.40
2019-02-26T14:53:02.167Z,32.47
2019-02-26T14:55:30.783Z,35.47
2019-02-26T14:57:59.380Z,34.37
2019-02-26T15:00:29.319Z,34.53
2019-02-26T15:02:57.983Z,35.33
2019-02-26T15:05:26.650Z,33.67
2019-02-26T15:07:55.308Z,33.93
2019-02-26T15:10:23.888Z,38.07
2019-02-26T15:12:52.537Z,34.50
2019-02-26T15:15:21.198Z,35.90
2019-02-26T15:17:49.854Z,37.57
2019-02-26T15:20:22.304Z,37.73
2019-02-26T15:22:50.929Z,34.80
2019-02-26T15:25:27.807Z,37.60
2019-02-26T15:28:04.607Z,37.53
2019-02-26T15:30:27.048Z,35.37
2019-02-26T15:32:55.607Z,34.17
2019-02-26T15:35:24.487Z,37.33
2019-02-26T15:37:53.102Z,34.43
2019-02-26T15:40:22.325Z,35.60
2019-02-26T15:42:53.046Z,32.53
2019-02-26T15:45:28.965Z,33.77
2019-02-26T15:47:56.482Z,33.33
2019-02-26T15:50:25.062Z,35.47
2019-02-26T15:52:53.773Z,33.73
2019-02-26T15:55:28.207Z,34.67
2019-02-26T15:57:56.441Z,35.17
2019-02-26T16:00:25.573Z,34.73
2019-02-26T16:02:58.950Z,37.07
2019-02-26T16:05:30.842Z,37.23
2019-02-26T16:07:59.420Z,38.40
2019-02-26T16:10:27.980Z,37.30
2019-02-26T16:12:58.233Z,36.37
2019-02-26T16:15:26.811Z,36.00
2019-02-26T16:18:51.325Z,38.30
2019-02-26T16:21:19.894Z,35.57
2019-02-26T16:23:48.458Z,36.43
2019-02-26T16:26:17.059Z,36.93
2019-02-26T16:28:45.643Z,36.90
2019-02-26T16:34:46.402Z,37.13
2019-02-26T16:37:15.003Z,37.20
2019-02-26T16:39:43.803Z,37.70
2019-02-26T16:42:12.393Z,37.50
2019-02-26T16:44:41.019Z,37.97
2019-02-26T16:47:09.655Z,38.77
2019-02-26T16:49:38.177Z,39.43
2019-02-26T16:52:07.075Z,39.57
2019-02-26T16:54:35.663Z,41.77
2019-02-26T16:57:04.306Z,37.90
2019-02-26T16:59:32.912Z,38.47
2019-02-26T17:02:01.925Z,41.17
2019-02-26T17:04:30.958Z,39.57
2019-02-26T17:06:59.544Z,37.10
2019-02-26T17:09:28.193Z,38.47
2019-02-26T17:11:56.747Z,38.70
2019-02-26T17:14:25.396Z,39.93
2019-02-26T17:16:53.957Z,38.67
2019-02-26T17:19:22.597Z,41.27
2019-02-26T17:21:51.168Z,41.93
2019-02-26T17:24:20.616Z,42.60
2019-02-26T17:26:49.901Z,44.03
2019-02-26T17:29:19.768Z,44.87
2019-02-26T17:31:48.461Z,45.43
2019-02-26T17:34:17.713Z,46.83
2019-02-26T17:36:49.027Z,45.50
2019-02-26T17:39:17.595Z,42.37
2019-02-26T17:41:46.171Z,43.80
2019-02-26T17:44:14.780Z,45.57
2019-02-26T17:46:43.401Z,45.07
2019-02-26T17:49:11.988Z,44.57
2019-02-26T17:51:40.581Z,47.00
2019-02-26T17:54:09.213Z,45.47
2019-02-26T17:56:37.829Z,45.37
2019-02-26T17:59:06.441Z,43.93
2019-02-26T18:01:35.019Z,46.03
2019-02-26T18:04:03.692Z,46.20
2019-02-26T18:06:32.315Z,47.87
2019-02-26T18:09:00.875Z,48.57
2019-02-26T18:11:29.501Z,46.47
2019-02-26T18:14:00.202Z,47.40
2019-02-26T18:16:28.401Z,45.70
2019-02-26T18:18:56.997Z,45.73
2019-02-26T18:21:25.590Z,44.63
2019-02-26T18:23:54.182Z,46.37
2019-02-26T18:26:22.751Z,45.83
2019-02-26T18:28:53.234Z,44.47
2019-02-26T18:31:26.380Z,45.53
2019-02-26T18:33:52.172Z,47.33
2019-02-26T18:36:20.791Z,48.87
2019-02-26T18:38:49.440Z,49.50
2019-02-26T18:41:18.020Z,48.17
2019-02-26T18:43:47.533Z,47.00
2019-02-26T18:46:16.617Z,46.20
2019-02-26T18:48:48.358Z,47.43
2019-02-26T18:51:17.818Z,48.03
2019-02-26T18:53:47.103Z,45.47
2019-02-26T18:56:16.266Z,44.70
2019-02-26T18:58:46.628Z,42.37
2019-02-26T19:01:16.831Z,43.83
2019-02-26T19:03:45.412Z,45.30
2019-02-26T19:06:13.974Z,44.77
2019-02-26T19:08:42.577Z,45.27
2019-02-26T19:11:16.656Z,46.93
2019-02-26T19:13:43.618Z,48.33
2019-02-26T19:16:16.178Z,49.13
2019-02-26T19:18:44.754Z,45.30
2019-02-26T19:21:14.873Z,48.10
2019-02-26T19:23:43.519Z,44.67
2019-02-26T19:26:13.737Z,44.67
2019-02-26T19:28:42.422Z,43.40
2019-02-26T19:31:11.034Z,42.50
2019-02-26T19:33:39.613Z,45.33
2019-02-26T19:36:10.651Z,44.63
2019-02-26T19:38:38.545Z,43.13
2019-02-26T19:41:14.879Z,42.70
2019-02-26T19:43:43.468Z,42.20
2019-02-26T19:46:12.093Z,43.37
2019-02-26T19:48:40.721Z,45.00
2019-02-26T19:51:09.359Z,43.03
2019-02-26T19:53:43.004Z,44.07
2019-02-26T19:56:11.596Z,42.40
2019-02-26T19:58:40.978Z,43.90
2019-02-26T20:01:10.145Z,46.00
2019-02-26T20:03:46.215Z,46.80
2019-02-26T20:06:14.862Z,44.70
2019-02-26T20:08:45.081Z,45.00
2019-02-26T20:11:13.689Z,43.87
2019-02-26T20:13:42.374Z,46.10
2019-02-26T20:16:13.339Z,43.83
2019-02-26T20:18:41.933Z,44.63
2019-02-26T20:21:10.514Z,45.60
2019-02-26T20:23:42.089Z,43.40
2019-02-26T20:26:16.064Z,45.50
2019-02-26T20:28:43.136Z,43.90
2019-02-26T20:31:11.743Z,45.47
2019-02-26T20:33:40.315Z,45.47
2019-02-26T20:36:09.900Z,43.23
2019-02-26T20:38:38.633Z,43.90
2019-02-26T20:41:07.306Z,46.50
2019-02-26T20:43:36.944Z,44.87
2019-02-26T20:46:06.015Z,44.70
2019-02-26T20:48:36.697Z,49.50
2019-02-26T20:51:04.962Z,44.93
2019-02-26T20:53:33.543Z,45.50
2019-02-26T20:56:05.210Z,44.90
2019-02-26T20:58:37.111Z,45.97
2019-02-26T21:01:07.263Z,46.53
2019-02-26T21:03:35.894Z,45.60
2019-02-26T21:06:04.463Z,46.33
2019-02-26T21:08:34.034Z,44.63
2019-02-26T21:11:02.629Z,45.93
2019-02-26T21:13:34.663Z,45.67
2019-02-26T21:16:01.871Z,46.23
2019-02-26T21:18:31.245Z,45.77
2019-02-26T21:21:00.218Z,48.55
2019-02-26T21:27:01.179Z,47.17
2019-02-26T21:29:30.326Z,47.58
2019-02-26T21:31:59.275Z,48.05
2019-02-26T21:34:29.306Z,48.02
2019-02-26T21:37:00.080Z,49.35
2019-02-26T21:39:29.584Z,50.52
2019-02-26T21:41:58.151Z,50.27
2019-02-26T21:44:26.775Z,48.80
2019-02-26T21:46:56.114Z,49.40
2019-02-26T21:49:25.719Z,48.52
2019-02-26T21:51:55.205Z,46.73
2019-02-26T21:54:24.750Z,47.73
2019-02-26T21:56:54.236Z,50.08
2019-02-26T21:59:23.118Z,50.67
2019-02-26T22:01:52.304Z,50.15
2019-02-26T22:04:21.078Z,48.87
2019-02-26T22:06:49.972Z,48.23
2019-02-26T22:09:18.852Z,50.60
2019-02-26T22:11:50.395Z,52.05
2019-02-26T22:14:18.398Z,51.13
2019-02-26T22:16:48.964Z,51.77
2019-02-26T22:19:20.229Z,52.35
2019-02-26T22:21:52.115Z,53.33
2019-02-26T22:24:20.878Z,51.98
2019-02-26T22:26:49.763Z,50.70
2019-02-26T22:29:18.664Z,53.58
2019-02-26T22:31:47.559Z,51.33
2019-02-26T22:34:16.759Z,53.08
2019-02-26T22:36:47.101Z,49.18
2019-02-26T22:39:16.345Z,53.65
2019-02-26T22:41:45.236Z,48.58
2019-02-26T22:44:14.106Z,52.62
2019-02-26T22:46:42.977Z,53.75
2019-02-26T22:49:11.879Z,51.53
2019-02-26T22:51:40.880Z,52.58
2019-02-26T22:54:10.383Z,51.55
2019-02-26T22:56:39.335Z,57.13
2019-02-26T22:59:08.522Z,55.00
2019-02-26T23:01:39.335Z,53.98
2019-02-26T23:04:08.412Z,55.73
2019-02-26T23:06:37.265Z,51.65
2019-02-26T23:09:08.163Z,51.53
2019-02-26T23:11:37.390Z,52.48
2019-02-26T23:14:07.212Z,52.05
2019-02-26T23:16:36.342Z,51.70
2019-02-26T23:19:05.277Z,51.45
2019-02-26T23:21:34.404Z,53.85
2019-02-26T23:24:03.439Z,51.55
2019-02-26T23:26:32.607Z,52.35
2019-02-26T23:29:01.509Z,53.55
2019-02-26T23:31:32.667Z,51.10
2019-02-26T23:34:01.686Z,51.05
2019-02-26T23:36:30.717Z,52.25
2019-02-26T23:38:59.621Z,50.30
2019-02-26T23:41:30.816Z,50.17
2019-02-26T23:43:59.165Z,49.18
2019-02-26T23:46:29.744Z,50.17
2019-02-26T23:48:58.679Z,47.62
2019-02-26T23:51:27.555Z,49.38
2019-02-26T23:53:56.417Z,49.85
2019-02-26T23:56:25.311Z,47.60
2019-02-26T23:58:54.199Z,51.28
